Terminal Aerodrome Forecast
Issued by NWS Wakefield, VA

Home | Current Version | Previous Version | Text Only | Print | Product List | Glossary On
Versions: 1 2 3 4 5 6 7 8 9 10 11 12 13 14 15 16 17 18 19 20
000
FTUS41 KAKQ 261500 AAA
TAFSBY
TAF AMD
KSBY 261533Z 2616/2712 05013KT P6SM OVC015
      TEMPO 2616/2618 BKN008 OVC015
     FM261800 06012G20KT 4SM -RA BR BKN007 OVC015
     FM262100 03015G25KT 2SM -RA BR OVC007
     FM270300 36020KT 2SM -RASN BR OVC007=

USA.gov is the U.S. government's official web portal to all federal, state and local government web resources and services.